MeteoGriva Station Historical Data
 
Daily Summary for May 06, 2026 Units:  Metric    English   Both
Daily Weekly Monthly Yearly Custom
  Current: High: Low: Average:
Temperature: 18.2 °C 23.8 °C 14.4 °C 18.9 °C
Dew Point: 9.3 °C 13.2 °C 6.6 °C 9.9 °C
Humidity: 56% 63% 45% 56%
Wind Speed: 2.9km/h 19.5km/h 0km/h 5km/h
Wind Gust: 7.2km/h 22.7km/h - -
WindWNW - - South
Pressure: 1012.9 hPa 1014.9 hPa 1012.9 hPa -
Precipitation: 0.0 mm      
Historical Graphs
 
 
Tabular Data for May 06, 2026
Time Temperature Dew Point Pressure Wind Wind Speed Wind Gust Humidity Rainfall Rate (Hourly) solar
00:14 15.8 °C 8.3 °C 1013.9 hPa South 10.1 km/h 10.8 km/h 61% 0.0 mm 0 W/m2
00:24 15.7 °C 8.2 °C 1013.9 hPa SSW 7.6 km/h 10.1 km/h 61% 0.0 mm 0 W/m2
00:34 15.6 °C 7.9 °C 1013.9 hPa South 5.5 km/h 7.9 km/h 60% 0.0 mm 0 W/m2
00:44 15.4 °C 7.7 °C 1013.9 hPa South 5.8 km/h 5.8 km/h 60% 0.0 mm 0 W/m2
00:54 15.3 °C 7.8 °C 1013.9 hPa South 6.9 km/h 6.9 km/h 61% 0.0 mm 0 W/m2
01:04 15.3 °C 7.8 °C 1013.9 hPa SSW 1.1 km/h 4 km/h 61% 0.0 mm 0 W/m2
01:14 15.2 °C 7.7 °C 1013.9 hPa NNW 1.4 km/h 5 km/h 61% 0.0 mm 0 W/m2
01:24 15.1 °C 7.6 °C 1013.9 hPa SSW 6.4 km/h 6.9 km/h 61% 0.0 mm 0 W/m2
01:34 15 °C 7.3 °C 1013.9 hPa South 4.3 km/h 7.9 km/h 60% 0.0 mm 0 W/m2
01:45 15.1 °C 6.9 °C 1013.9 hPa South 4.3 km/h 9.3 km/h 58% 0.0 mm 0 W/m2
01:55 15.1 °C 6.9 °C 1013.9 hPa SSW 5.5 km/h 7.6 km/h 58% 0.0 mm 0 W/m2
02:05 15.1 °C 6.7 °C 1013.9 hPa South 8.2 km/h 9 km/h 57% 0.0 mm 0 W/m2
02:15 15 °C 6.8 °C 1013.9 hPa South 6.9 km/h 8.7 km/h 58% 0.0 mm 0 W/m2
02:25 15.1 °C 6.9 °C 1013.9 hPa South 6.9 km/h 6.9 km/h 58% 0.0 mm 0 W/m2
02:35 14.9 °C 7 °C 1013.9 hPa SSW 4.3 km/h 6.1 km/h 59% 0.0 mm 0 W/m2
02:45 14.8 °C 6.6 °C 1013.9 hPa WNW 4.7 km/h 8.2 km/h 58% 0.0 mm 0 W/m2
02:55 15 °C 7.1 °C 1013.5 hPa SW 5.5 km/h 7.2 km/h 59% 0.0 mm 0 W/m2
03:05 14.9 °C 7 °C 1013.5 hPa NW 3.2 km/h 3.2 km/h 59% 0.0 mm 0 W/m2
03:15 14.9 °C 6.7 °C 1013.5 hPa NNW 1.1 km/h 5.5 km/h 58% 0.0 mm 0 W/m2
03:25 14.9 °C 6.7 °C 1013.5 hPa South 4 km/h 5.8 km/h 58% 0.0 mm 0 W/m2
03:35 15 °C 6.8 °C 1013.5 hPa South 3.5 km/h 4.7 km/h 58% 0.0 mm 0 W/m2
03:45 15.1 °C 6.9 °C 1013.5 hPa North 2.9 km/h 4 km/h 58% 0.0 mm 0 W/m2
03:55 15 °C 6.8 °C 1013.5 hPa WSW 1.4 km/h 2.9 km/h 58% 0.0 mm 0 W/m2
04:06 14.9 °C 7 °C 1013.5 hPa Calm   4.7 km/h 59% 0.0 mm 0 W/m2
04:16 14.7 °C 7 °C 1013.5 hPa NNW 3.2 km/h 3.2 km/h 60% 0.0 mm 0 W/m2
04:26 14.5 °C 6.8 °C 1013.9 hPa Calm     60% 0.0 mm 0 W/m2
04:36 14.6 °C 6.7 °C 1013.9 hPa WSW 1.4 km/h 3.2 km/h 59% 0.0 mm 0 W/m2
04:46 14.7 °C 6.8 °C 1013.9 hPa Calm     59% 0.0 mm 0 W/m2
04:56 14.7 °C 6.8 °C 1013.5 hPa WSW 1.8 km/h 2.6 km/h 59% 0.0 mm 0 W/m2
05:06 14.8 °C 6.6 °C 1013.5 hPa Calm   2.6 km/h 58% 0.0 mm 0 W/m2
05:16 14.9 °C 6.7 °C 1013.5 hPa Calm     58% 0.0 mm 0 W/m2
05:26 15 °C 7.3 °C 1013.5 hPa WNW 1.1 km/h 2.1 km/h 60% 0.0 mm 0 W/m2
05:36 14.9 °C 7.2 °C 1013.5 hPa NW 4 km/h 4 km/h 60% 0.0 mm 0 W/m2
05:46 15 °C 7.1 °C 1013.5 hPa West 1.1 km/h 3.2 km/h 59% 0.0 mm 0 W/m2
05:56 14.8 °C 7.4 °C 1013.5 hPa Calm     61% 0.0 mm 0 W/m2
06:06 14.4 °C 7.5 °C 1013.5 hPa WNW 2.1 km/h 3.5 km/h 63% 0.0 mm 0 W/m2
06:16 14.4 °C 7.2 °C 1013.5 hPa Calm     62% 0.0 mm 2 W/m2
06:26 14.8 °C 7.4 °C 1013.5 hPa Calm   0.6 km/h 61% 0.0 mm 7 W/m2
06:37 15 °C 7.5 °C 1013.9 hPa Calm     61% 0.0 mm 17 W/m2
06:47 15.2 °C 7.7 °C 1013.9 hPa SSW 2.6 km/h 4 km/h 61% 0.0 mm 35 W/m2
06:57 15.7 °C 8.2 °C 1013.9 hPa NE 2.6 km/h 2.9 km/h 61% 0.0 mm 50 W/m2
07:07 16.3 °C 8.8 °C 1014.2 hPa NNE 3.5 km/h 3.5 km/h 61% 0.0 mm 75 W/m2
07:17 17.7 °C 8.8 °C 1014.2 hPa NNE 3.2 km/h 4.3 km/h 56% 0.0 mm 92 W/m2
07:27 17.9 °C 9.3 °C 1014.2 hPa ENE 1.4 km/h 1.8 km/h 57% 0.0 mm 60 W/m2
07:37 17.2 °C 9.6 °C 1014.6 hPa Calm   2.9 km/h 61% 0.0 mm 68 W/m2
07:47 16.2 °C 9.2 °C 1014.6 hPa Calm   2.1 km/h 63% 0.0 mm 110 W/m2
07:57 16.8 °C 8.8 °C 1014.6 hPa NNE 3.5 km/h 3.5 km/h 59% 0.0 mm 165 W/m2
08:07 18.4 °C 9.5 °C 1014.6 hPa WSW 2.1 km/h 4 km/h 56% 0.0 mm 187 W/m2
08:17 18.8 °C 9.8 °C 1014.6 hPa WNW 2.6 km/h 5 km/h 56% 0.0 mm 222 W/m2
08:27 18.7 °C 10 °C 1014.6 hPa ESE 1.1 km/h 4.3 km/h 57% 0.0 mm 252 W/m2
08:37 18.7 °C 10.3 °C 1014.6 hPa WNW 2.1 km/h 5 km/h 58% 0.0 mm 313 W/m2
08:47 19.5 °C 11.3 °C 1014.6 hPa SSE 6.4 km/h 8.2 km/h 59% 0.0 mm 334 W/m2
08:57 19.4 °C 10.9 °C 1014.6 hPa SSE 6.4 km/h 9 km/h 58% 0.0 mm 356 W/m2
09:07 19.3 °C 10.6 °C 1014.6 hPa ESE 2.1 km/h 4.3 km/h 57% 0.0 mm 383 W/m2
09:17 19.5 °C 10.2 °C 1014.6 hPa North 2.6 km/h 6.1 km/h 55% 0.0 mm 347 W/m2
09:27 19.6 °C 10.9 °C 1014.9 hPa NE 2.9 km/h 6.4 km/h 57% 0.0 mm 436 W/m2
09:37 19.4 °C 10.7 °C 1014.6 hPa NE 2.6 km/h 7.6 km/h 57% 0.0 mm 489 W/m2
09:47 19.3 °C 10.3 °C 1014.6 hPa NW 0.6 km/h 8.2 km/h 56% 0.0 mm 476 W/m2
09:57 19.4 °C 10.9 °C 1014.6 hPa NE 3.5 km/h 7.6 km/h 58% 0.0 mm 523 W/m2
10:07 19.5 °C 10.8 °C 1014.6 hPa NNE 7.6 km/h 7.6 km/h 57% 0.0 mm 548 W/m2
10:17 20.3 °C 11 °C 1014.6 hPa SE 6.4 km/h 7.2 km/h 55% 0.0 mm 572 W/m2
10:27 20.3 °C 11.2 °C 1014.6 hPa SSE 6.9 km/h 9.7 km/h 56% 0.0 mm 629 W/m2
10:37 20.2 °C 11.7 °C 1014.6 hPa SE 13.4 km/h 13.4 km/h 58% 0.0 mm 657 W/m2
10:47 20.4 °C 11.6 °C 1014.6 hPa NNE 6.1 km/h 10.5 km/h 57% 0.0 mm 673 W/m2
10:57 20.3 °C 11.5 °C 1014.6 hPa NNW 0.6 km/h 10.8 km/h 57% 0.0 mm 711 W/m2
11:07 20.7 °C 11.9 °C 1014.6 hPa South 1.1 km/h 8.7 km/h 57% 0.0 mm 736 W/m2
11:17 20.8 °C 12.2 °C 1014.6 hPa SW 2.6 km/h 7.9 km/h 58% 0.0 mm 759 W/m2
11:27 21.2 °C 12.3 °C 1014.6 hPa SE 7.2 km/h 11.6 km/h 57% 0.0 mm 778 W/m2
11:38 21.3 °C 12.4 °C 1014.9 hPa South 2.6 km/h 10.1 km/h 57% 0.0 mm 797 W/m2
11:48 21.3 °C 12.4 °C 1014.9 hPa West 2.1 km/h 16.3 km/h 57% 0.0 mm 826 W/m2
11:58 21.4 °C 12.3 °C 1014.9 hPa South 4.7 km/h 8.2 km/h 56% 0.0 mm 860 W/m2
12:08 21.4 °C 12 °C 1014.9 hPa South 1.8 km/h 8.2 km/h 55% 0.0 mm 854 W/m2
12:18 21.8 °C 12.1 °C 1014.9 hPa South 0.3 km/h 15.4 km/h 54% 0.0 mm 860 W/m2
12:28 22.2 °C 12.2 °C 1014.9 hPa NW 2.1 km/h 11.1 km/h 53% 0.0 mm 873 W/m2
12:38 22.5 °C 12.4 °C 1014.9 hPa South 6.9 km/h 12.2 km/h 53% 0.0 mm 880 W/m2
12:48 22.3 °C 12 °C 1014.6 hPa NNE 3.2 km/h 9 km/h 52% 0.0 mm 879 W/m2
12:58 22.3 °C 12.5 °C 1014.6 hPa East 6.1 km/h 11.6 km/h 54% 0.0 mm 895 W/m2
13:08 22.7 °C 12 °C 1014.6 hPa SSE 7.9 km/h 11.6 km/h 51% 0.0 mm 888 W/m2
13:18 22.6 °C 12.3 °C 1014.6 hPa SE 13 km/h 13 km/h 52% 0.0 mm 900 W/m2
13:28 22.6 °C 11.7 °C 1014.6 hPa SW 2.6 km/h 11.1 km/h 50% 0.0 mm 901 W/m2
13:38 22.7 °C 11.7 °C 1014.6 hPa South 5.8 km/h 15.8 km/h 50% 0.0 mm 898 W/m2
13:48 22.7 °C 11.7 °C 1014.2 hPa South 7.6 km/h 14.3 km/h 50% 0.0 mm 896 W/m2
13:58 22.9 °C 12.2 °C 1014.2 hPa SE 2.1 km/h 14 km/h 51% 0.0 mm 886 W/m2
14:08 22.9 °C 11.9 °C 1014.2 hPa SSE 9.3 km/h 15.8 km/h 50% 0.0 mm 881 W/m2
14:18 22.9 °C 11.9 °C 1014.2 hPa SSE 9 km/h 15.4 km/h 50% 0.0 mm 874 W/m2
14:28 23 °C 11.1 °C 1014.2 hPa South 4 km/h 15.4 km/h 47% 0.0 mm 856 W/m2
14:38 23.2 °C 10.6 °C 1014.2 hPa SW 3.5 km/h 12.2 km/h 45% 0.0 mm 849 W/m2
14:48 23.3 °C 11.7 °C 1014.2 hPa South 12.2 km/h 12.2 km/h 48% 0.0 mm 831 W/m2
14:58 23.1 °C 12.1 °C 1013.9 hPa SW 5 km/h 19.5 km/h 50% 0.0 mm 814 W/m2
15:08 23.3 °C 12.9 °C 1013.9 hPa SSW 2.6 km/h 13.4 km/h 52% 0.0 mm 798 W/m2
15:18 23.2 °C 12.5 °C 1013.5 hPa SSW 5 km/h 15.1 km/h 51% 0.0 mm 768 W/m2
15:28 23.4 °C 12.1 °C 1013.5 hPa SW 6.1 km/h 22.7 km/h 49% 0.0 mm 751 W/m2
15:38 23.4 °C 12.4 °C 1013.5 hPa SSW 8.7 km/h 19.5 km/h 50% 0.0 mm 733 W/m2
15:48 23.4 °C 12.4 °C 1013.5 hPa South 10.5 km/h 19.8 km/h 50% 0.0 mm 709 W/m2
15:58 23.8 °C 12.8 °C 1013.5 hPa South 13 km/h 16.3 km/h 50% 0.0 mm 681 W/m2
16:08 23.8 °C 12.8 °C 1013.5 hPa South 9 km/h 13.4 km/h 50% 0.0 mm 647 W/m2
16:18 23.6 °C 13.2 °C 1013.2 hPa South 12.2 km/h 16.9 km/h 52% 0.0 mm 613 W/m2
16:28 23 °C 12.3 °C 1013.2 hPa SSE 11.1 km/h 15.4 km/h 51% 0.0 mm 586 W/m2
16:38 22.9 °C 12.2 °C 1013.2 hPa East 3.2 km/h 15.4 km/h 51% 0.0 mm 537 W/m2
16:48 23 °C 12 °C 1013.2 hPa SSE 19.5 km/h 21.9 km/h 50% 0.0 mm 483 W/m2
16:58 23 °C 11.7 °C 1013.2 hPa South 11.1 km/h 16.6 km/h 49% 0.0 mm 404 W/m2
17:08 22.9 °C 11.3 °C 1013.2 hPa SSE 8.7 km/h 17.2 km/h 48% 0.0 mm 401 W/m2
17:18 22.7 °C 11.4 °C 1013.2 hPa SSW 8.2 km/h 19.5 km/h 49% 0.0 mm 392 W/m2
17:28 22.4 °C 11.5 °C 1013.2 hPa SSE 6.4 km/h 14.3 km/h 50% 0.0 mm 384 W/m2
17:38 22.5 °C 11.3 °C 1013.2 hPa SSW 10.5 km/h 16.3 km/h 49% 0.0 mm 357 W/m2
17:48 21.9 °C 11.3 °C 1013.2 hPa SSW 12.2 km/h 14 km/h 51% 0.0 mm 166 W/m2
17:58 21.5 °C 10.9 °C 1013.2 hPa South 10.5 km/h 15.1 km/h 51% 0.0 mm 325 W/m2
18:08 21.3 °C 11.1 °C 1013.2 hPa South 11.1 km/h 15.1 km/h 52% 0.0 mm 242 W/m2
18:18 21 °C 11.6 °C 1013.2 hPa South 11.1 km/h 13 km/h 55% 0.0 mm 80 W/m2
18:28 20.8 °C 11.4 °C 1013.2 hPa SW 9.3 km/h 12.2 km/h 55% 0.0 mm 78 W/m2
18:38 20.6 °C 11.5 °C 1013.2 hPa South 11.1 km/h 12.6 km/h 56% 0.0 mm 67 W/m2
18:48 20.5 °C 11.7 °C 1013.2 hPa West 6.9 km/h 10.8 km/h 57% 0.0 mm 56 W/m2
18:58 20.3 °C 12 °C 1012.9 hPa SSW 5 km/h 7.2 km/h 59% 0.0 mm 50 W/m2
19:08 19.9 °C 11.9 °C 1013.2 hPa South 6.4 km/h 9.3 km/h 60% 0.0 mm 46 W/m2
19:18 19.4 °C 11.4 °C 1012.9 hPa South 5 km/h 8.7 km/h 60% 0.0 mm 40 W/m2
19:29 19 °C 11.3 °C 1012.9 hPa SSW 6.4 km/h 11.6 km/h 61% 0.0 mm 34 W/m2
19:39 18.5 °C 10.8 °C 1012.9 hPa South 7.6 km/h 12.2 km/h 61% 0.0 mm 28 W/m2
19:49 18.2 °C 10.1 °C 1012.9 hPa South 6.1 km/h 11.1 km/h 59% 0.0 mm 25 W/m2
19:59 18.1 °C 9.5 °C 1012.9 hPa SSW 3.5 km/h 9.3 km/h 57% 0.0 mm 21 W/m2
20:09 18.2 °C 9.3 °C 1012.9 hPa WNW 2.9 km/h 7.2 km/h 56% 0.0 mm 14 W/m2
Juneau County Weather
Compliments of Weather Underground - 8 mb